sensor_id;sensor_type;location;lat;lon;timestamp;pressure;altitude;pressure_sealevel;temperature;humidity
11672;BME280;5892;43.412;24.612;2023-06-14T00:00:52;99701.16;;;17.89;100.00
11672;BME280;5892;43.412;24.612;2023-06-14T00:03:21;99709.22;;;18.01;100.00
11672;BME280;5892;43.412;24.612;2023-06-14T00:05:50;99706.25;;;17.87;100.00
11672;BME280;5892;43.412;24.612;2023-06-14T00:08:18;99697.94;;;17.87;100.00
11672;BME280;5892;43.412;24.612;2023-06-14T00:10:48;99705.16;;;17.95;100.00
11672;BME280;5892;43.412;24.612;2023-06-14T00:13:15;99700.38;;;17.92;100.00
11672;BME280;5892;43.412;24.612;2023-06-14T00:15:45;99699.94;;;17.90;100.00
11672;BME280;5892;43.412;24.612;2023-06-14T00:18:13;99705.16;;;17.95;100.00
11672;BME280;5892;43.412;24.612;2023-06-14T00:20:40;99698.84;;;17.95;100.00
11672;BME280;5892;43.412;24.612;2023-06-14T00:23:07;99694.00;;;17.88;100.00
11672;BME280;5892;43.412;24.612;2023-06-14T00:25:34;99688.31;;;17.77;100.00
11672;BME280;5892;43.412;24.612;2023-06-14T00:28:01;99671.19;;;17.72;100.00
11672;BME280;5892;43.412;24.612;2023-06-14T00:30:27;99688.44;;;17.88;100.00
11672;BME280;5892;43.412;24.612;2023-06-14T00:32:57;99689.63;;;17.87;100.00
11672;BME280;5892;43.412;24.612;2023-06-14T00:35:24;99690.25;;;18.03;100.00
11672;BME280;5892;43.412;24.612;2023-06-14T00:37:51;99660.63;;;17.81;100.00
11672;BME280;5892;43.412;24.612;2023-06-14T00:40:20;99676.94;;;17.86;100.00
11672;BME280;5892;43.412;24.612;2023-06-14T00:42:47;99668.94;;;17.81;100.00
11672;BME280;5892;43.412;24.612;2023-06-14T00:45:14;99685.31;;;17.90;100.00
11672;BME280;5892;43.412;24.612;2023-06-14T00:47:41;99682.06;;;17.84;100.00
11672;BME280;5892;43.412;24.612;2023-06-14T00:50:11;99684.41;;;17.82;100.00
11672;BME280;5892;43.412;24.612;2023-06-14T00:52:39;99679.69;;;17.86;100.00
11672;BME280;5892;43.412;24.612;2023-06-14T00:55:07;99683.72;;;17.89;100.00
11672;BME280;5892;43.412;24.612;2023-06-14T00:57:34;99680.47;;;17.83;100.00
11672;BME280;5892;43.412;24.612;2023-06-14T01:00:03;99682.91;;;17.88;100.00
11672;BME280;5892;43.412;24.612;2023-06-14T01:02:34;99683.63;;;17.85;100.00
11672;BME280;5892;43.412;24.612;2023-06-14T01:05:02;99669.25;;;17.76;100.00
11672;BME280;5892;43.412;24.612;2023-06-14T01:07:36;99675.28;;;17.82;100.00
11672;BME280;5892;43.412;24.612;2023-06-14T01:10:15;99682.06;;;17.84;100.00
11672;BME280;5892;43.412;24.612;2023-06-14T01:12:55;99666.88;;;17.74;100.00
11672;BME280;5892;43.412;24.612;2023-06-14T01:15:24;99684.84;;;17.84;100.00
11672;BME280;5892;43.412;24.612;2023-06-14T01:17:54;99679.31;;;17.84;100.00
11672;BME280;5892;43.412;24.612;2023-06-14T01:20:28;99683.59;;;17.82;100.00
11672;BME280;5892;43.412;24.612;2023-06-14T01:22:58;99668.53;;;17.79;100.00
11672;BME280;5892;43.412;24.612;2023-06-14T01:25:25;99680.31;;;17.72;100.00
11672;BME280;5892;43.412;24.612;2023-06-14T01:27:55;99664.47;;;17.73;100.00
11672;BME280;5892;43.412;24.612;2023-06-14T01:30:24;99680.47;;;17.83;100.00
11672;BME280;5892;43.412;24.612;2023-06-14T01:32:52;99675.66;;;17.80;100.00
11672;BME280;5892;43.412;24.612;2023-06-14T01:35:20;99684.09;;;17.87;100.00
11672;BME280;5892;43.412;24.612;2023-06-14T01:37:48;99687.50;;;17.77;100.00
11672;BME280;5892;43.412;24.612;2023-06-14T01:40:18;99663.19;;;17.67;100.00
11672;BME280;5892;43.412;24.612;2023-06-14T01:42:47;99682.91;;;17.88;100.00
11672;BME280;5892;43.412;24.612;2023-06-14T01:45:18;99674.22;;;17.90;100.00
11672;BME280;5892;43.412;24.612;2023-06-14T01:47:46;99677.22;;;17.77;100.00
11672;BME280;5892;43.412;24.612;2023-06-14T01:50:13;99660.31;;;17.86;100.00
11672;BME280;5892;43.412;24.612;2023-06-14T01:52:40;99672.88;;;17.80;100.00
11672;BME280;5892;43.412;24.612;2023-06-14T01:55:09;99605.31;;;17.35;100.00
11672;BME280;5892;43.412;24.612;2023-06-14T01:57:37;99681.25;;;17.84;100.00
11672;BME280;5892;43.412;24.612;2023-06-14T02:00:06;99663.72;;;17.76;100.00
11672;BME280;5892;43.412;24.612;2023-06-14T02:02:36;99678.06;;;17.82;100.00
11672;BME280;5892;43.412;24.612;2023-06-14T02:05:03;99673.97;;;17.72;100.00
11672;BME280;5892;43.412;24.612;2023-06-14T02:07:31;99674.84;;;17.79;100.00
11672;BME280;5892;43.412;24.612;2023-06-14T02:09:58;99685.09;;;17.75;100.00
11672;BME280;5892;43.412;24.612;2023-06-14T02:12:25;99683.44;;;17.71;100.00
11672;BME280;5892;43.412;24.612;2023-06-14T02:14:53;99678.09;;;17.85;100.00
11672;BME280;5892;43.412;24.612;2023-06-14T02:17:21;99677.06;;;17.67;100.00
11672;BME280;5892;43.412;24.612;2023-06-14T02:19:48;99686.16;;;17.67;100.00
11672;BME280;5892;43.412;24.612;2023-06-14T02:22:16;99681.00;;;17.66;100.00
11672;BME280;5892;43.412;24.612;2023-06-14T02:24:43;99683.44;;;17.71;100.00
11672;BME280;5892;43.412;24.612;2023-06-14T02:27:10;99689.16;;;17.82;100.00
11672;BME280;5892;43.412;24.612;2023-06-14T02:29:37;99689.50;;;17.80;100.00
11672;BME280;5892;43.412;24.612;2023-06-14T02:32:06;99691.81;;;17.74;100.00
11672;BME280;5892;43.412;24.612;2023-06-14T02:34:36;99642.00;;;17.55;100.00
11672;BME280;5892;43.412;24.612;2023-06-14T02:37:06;99679.56;;;17.75;100.00
11672;BME280;5892;43.412;24.612;2023-06-14T02:39:33;99690.44;;;17.88;100.00
11672;BME280;5892;43.412;24.612;2023-06-14T02:42:04;99695.50;;;17.82;100.00
11672;BME280;5892;43.412;24.612;2023-06-14T02:44:31;99696.56;;;17.74;100.00
11672;BME280;5892;43.412;24.612;2023-06-14T02:46:58;99704.94;;;17.77;100.00
11672;BME280;5892;43.412;24.612;2023-06-14T02:49:27;99708.19;;;17.83;100.00
11672;BME280;5892;43.412;24.612;2023-06-14T02:51:55;99707.75;;;17.81;100.00
11672;BME280;5892;43.412;24.612;2023-06-14T02:54:21;99716.00;;;17.77;100.00
11672;BME280;5892;43.412;24.612;2023-06-14T02:56:48;99721.06;;;17.72;100.00
11672;BME280;5892;43.412;24.612;2023-06-14T02:59:15;99720.78;;;17.81;100.00
11672;BME280;5892;43.412;24.612;2023-06-14T03:01:43;99740.69;;;17.86;100.00
11672;BME280;5892;43.412;24.612;2023-06-14T03:04:10;99715.66;;;17.79;100.00
11672;BME280;5892;43.412;24.612;2023-06-14T03:06:38;99735.22;;;17.90;100.00
11672;BME280;5892;43.412;24.612;2023-06-14T03:09:06;99736.69;;;17.84;100.00
11672;BME280;5892;43.412;24.612;2023-06-14T03:11:34;99733.84;;;17.80;100.00
11672;BME280;5892;43.412;24.612;2023-06-14T03:14:03;99737.34;;;17.73;100.00
11672;BME280;5892;43.412;24.612;2023-06-14T03:16:32;99735.44;;;17.81;100.00
11672;BME280;5892;43.412;24.612;2023-06-14T03:18:59;99740.63;;;17.83;100.00
11672;BME280;5892;43.412;24.612;2023-06-14T03:21:26;99750.47;;;17.80;100.00
11672;BME280;5892;43.412;24.612;2023-06-14T03:23:55;99730.41;;;17.87;100.00
11672;BME280;5892;43.412;24.612;2023-06-14T03:26:22;99735.22;;;17.90;100.00
11672;BME280;5892;43.412;24.612;2023-06-14T03:28:50;99741.53;;;17.90;100.00
11672;BME280;5892;43.412;24.612;2023-06-14T03:31:17;99742.41;;;17.94;100.00
11672;BME280;5892;43.412;24.612;2023-06-14T03:33:44;99753.56;;;18.01;100.00
11672;BME280;5892;43.412;24.612;2023-06-14T03:36:12;99740.75;;;17.90;100.00
11672;BME280;5892;43.412;24.612;2023-06-14T03:38:39;99740.16;;;18.03;100.00
11672;BME280;5892;43.412;24.612;2023-06-14T03:41:07;99756.81;;;18.07;100.00
11672;BME280;5892;43.412;24.612;2023-06-14T03:43:34;99759.59;;;18.07;100.00
11672;BME280;5892;43.412;24.612;2023-06-14T03:46:01;99738.13;;;18.00;100.00
11672;BME280;5892;43.412;24.612;2023-06-14T03:48:28;99752.19;;;18.14;100.00
11672;BME280;5892;43.412;24.612;2023-06-14T03:50:55;99756.97;;;18.17;100.00
11672;BME280;5892;43.412;24.612;2023-06-14T03:53:22;99755.94;;;18.26;100.00
11672;BME280;5892;43.412;24.612;2023-06-14T03:55:49;99756.31;;;18.28;100.00
11672;BME280;5892;43.412;24.612;2023-06-14T03:58:19;99762.34;;;18.33;100.00
11672;BME280;5892;43.412;24.612;2023-06-14T04:00:47;99737.72;;;18.28;100.00
11672;BME280;5892;43.412;24.612;2023-06-14T04:03:14;99755.78;;;18.45;100.00
11672;BME280;5892;43.412;24.612;2023-06-14T04:05:45;99759.88;;;18.54;100.00
11672;BME280;5892;43.412;24.612;2023-06-14T04:08:15;99756.78;;;18.59;100.00
11672;BME280;5892;43.412;24.612;2023-06-14T04:10:44;99748.41;;;18.56;100.00
11672;BME280;5892;43.412;24.612;2023-06-14T04:13:12;99750.88;;;18.61;100.00
11672;BME280;5892;43.412;24.612;2023-06-14T04:15:40;99760.69;;;18.55;100.00
11672;BME280;5892;43.412;24.612;2023-06-14T04:18:09;99757.59;;;18.60;100.00
11672;BME280;5892;43.412;24.612;2023-06-14T04:20:36;99745.31;;;18.61;100.00
11672;BME280;5892;43.412;24.612;2023-06-14T04:23:11;99736.53;;;18.55;100.00
11672;BME280;5892;43.412;24.612;2023-06-14T04:25:40;99758.41;;;18.64;100.00
11672;BME280;5892;43.412;24.612;2023-06-14T04:28:10;99764.38;;;18.63;100.00
11672;BME280;5892;43.412;24.612;2023-06-14T04:30:40;99761.13;;;18.57;100.00
11672;BME280;5892;43.412;24.612;2023-06-14T04:33:07;99753.00;;;18.45;100.00
11672;BME280;5892;43.412;24.612;2023-06-14T04:35:35;99758.06;;;18.66;100.00
11672;BME280;5892;43.412;24.612;2023-06-14T04:38:03;99767.63;;;18.68;100.00
11672;BME280;5892;43.412;24.612;2023-06-14T04:40:34;99765.28;;;18.74;100.00
11672;BME280;5892;43.412;24.612;2023-06-14T04:43:08;99747.38;;;18.68;100.00
11672;BME280;5892;43.412;24.612;2023-06-14T04:45:39;99769.84;;;18.89;100.00
11672;BME280;5892;43.412;24.612;2023-06-14T04:48:06;99767.34;;;18.80;100.00
11672;BME280;5892;43.412;24.612;2023-06-14T04:50:33;99770.63;;;18.89;100.00
11672;BME280;5892;43.412;24.612;2023-06-14T04:53:00;99779.28;;;18.84;100.00
11672;BME280;5892;43.412;24.612;2023-06-14T04:55:28;99779.75;;;18.90;100.00
11672;BME280;5892;43.412;24.612;2023-06-14T04:57:55;99782.91;;;18.88;100.00
11672;BME280;5892;43.412;24.612;2023-06-14T05:00:22;99787.25;;;18.86;100.00
11672;BME280;5892;43.412;24.612;2023-06-14T05:02:51;99778.03;;;18.78;100.00
11672;BME280;5892;43.412;24.612;2023-06-14T05:05:18;99779.00;;;18.93;100.00
11672;BME280;5892;43.412;24.612;2023-06-14T05:07:45;99789.69;;;18.91;100.00
11672;BME280;5892;43.412;24.612;2023-06-14T05:10:12;99788.13;;;18.93;100.00
11672;BME280;5892;43.412;24.612;2023-06-14T05:12:39;99786.53;;;18.92;100.00
11672;BME280;5892;43.412;24.612;2023-06-14T05:15:09;99794.09;;;18.95;100.00
11672;BME280;5892;43.412;24.612;2023-06-14T05:17:36;99797.59;;;18.89;100.00
11672;BME280;5892;43.412;24.612;2023-06-14T05:20:07;99762.47;;;18.70;100.00
11672;BME280;5892;43.412;24.612;2023-06-14T05:22:35;99794.84;;;18.92;100.00
11672;BME280;5892;43.412;24.612;2023-06-14T05:25:03;99787.94;;;18.79;100.00
11672;BME280;5892;43.412;24.612;2023-06-14T05:27:30;99796.75;;;18.85;100.00
11672;BME280;5892;43.412;24.612;2023-06-14T05:29:57;99800.75;;;18.87;100.00
11672;BME280;5892;43.412;24.612;2023-06-14T05:32:24;99788.06;;;18.90;100.00
11672;BME280;5892;43.412;24.612;2023-06-14T05:34:51;99801.59;;;18.91;100.00
11672;BME280;5892;43.412;24.612;2023-06-14T05:37:19;99803.53;;;18.87;100.00
11672;BME280;5892;43.412;24.612;2023-06-14T05:39:46;99802.81;;;18.94;100.00
11672;BME280;5892;43.412;24.612;2023-06-14T05:42:13;99795.19;;;18.87;100.00
11672;BME280;5892;43.412;24.612;2023-06-14T05:44:40;99770.09;;;18.77;100.00
11672;BME280;5892;43.412;24.612;2023-06-14T05:47:06;99796.13;;;18.98;100.00
11672;BME280;5892;43.412;24.612;2023-06-14T05:49:36;99804.94;;;19.08;100.00
11672;BME280;5892;43.412;24.612;2023-06-14T05:52:07;99801.06;;;19.16;100.00
11672;BME280;5892;43.412;24.612;2023-06-14T05:54:36;99800.31;;;19.19;100.00
11672;BME280;5892;43.412;24.612;2023-06-14T05:57:03;99800.22;;;19.12;100.00
11672;BME280;5892;43.412;24.612;2023-06-14T05:59:31;99790.72;;;19.13;100.00
11672;BME280;5892;43.412;24.612;2023-06-14T06:01:58;99819.16;;;19.36;100.00
11672;BME280;5892;43.412;24.612;2023-06-14T06:04:26;99812.53;;;19.48;100.00
11672;BME280;5892;43.412;24.612;2023-06-14T06:06:53;99807.69;;;19.41;100.00
11672;BME280;5892;43.412;24.612;2023-06-14T06:09:20;99825.44;;;19.66;100.00
11672;BME280;5892;43.412;24.612;2023-06-14T06:11:48;99824.28;;;19.71;100.00
11672;BME280;5892;43.412;24.612;2023-06-14T06:14:15;99818.75;;;19.74;100.00
11672;BME280;5892;43.412;24.612;2023-06-14T06:16:42;99800.25;;;19.49;100.00
11672;BME280;5892;43.412;24.612;2023-06-14T06:19:09;99833.81;;;19.73;100.00
11672;BME280;5892;43.412;24.612;2023-06-14T06:21:38;99840.44;;;19.58;100.00
11672;BME280;5892;43.412;24.612;2023-06-14T06:24:06;99840.44;;;19.58;100.00
11672;BME280;5892;43.412;24.612;2023-06-14T06:26:33;99837.38;;;19.70;100.00
11672;BME280;5892;43.412;24.612;2023-06-14T06:29:01;99833.78;;;19.70;100.00
11672;BME280;5892;43.412;24.612;2023-06-14T06:31:29;99840.22;;;19.77;100.00
11672;BME280;5892;43.412;24.612;2023-06-14T06:33:57;99828.72;;;19.79;100.00
11672;BME280;5892;43.412;24.612;2023-06-14T06:36:24;99843.03;;;19.81;100.00
11672;BME280;5892;43.412;24.612;2023-06-14T06:38:51;99835.31;;;20.08;100.00
11672;BME280;5892;43.412;24.612;2023-06-14T06:41:18;99813.72;;;19.91;100.00
11672;BME280;5892;43.412;24.612;2023-06-14T06:43:45;99836.31;;;20.33;100.00
11672;BME280;5892;43.412;24.612;2023-06-14T06:46:15;99844.00;;;20.50;100.00
11672;BME280;5892;43.412;24.612;2023-06-14T06:48:43;99837.31;;;20.69;100.00
11672;BME280;5892;43.412;24.612;2023-06-14T06:51:14;99857.03;;;21.08;100.00
11672;BME280;5892;43.412;24.612;2023-06-14T06:53:52;99847.59;;;21.44;100.00
11672;BME280;5892;43.412;24.612;2023-06-14T06:56:19;99860.00;;;21.79;100.00
11672;BME280;5892;43.412;24.612;2023-06-14T06:58:48;99854.06;;;22.09;100.00
11672;BME280;5892;43.412;24.612;2023-06-14T07:01:17;99858.03;;;22.36;100.00
11672;BME280;5892;43.412;24.612;2023-06-14T07:03:44;99859.63;;;22.55;100.00
11672;BME280;5892;43.412;24.612;2023-06-14T07:06:11;99844.81;;;22.68;100.00
11672;BME280;5892;43.412;24.612;2023-06-14T07:08:39;99861.19;;;22.80;100.00
11672;BME280;5892;43.412;24.612;2023-06-14T07:11:06;99863.97;;;22.77;100.00
11672;BME280;5892;43.412;24.612;2023-06-14T07:13:33;99865.97;;;22.69;100.00
11672;BME280;5892;43.412;24.612;2023-06-14T07:16:03;99871.13;;;22.89;100.00
11672;BME280;5892;43.412;24.612;2023-06-14T07:18:33;99871.94;;;22.82;100.00
11672;BME280;5892;43.412;24.612;2023-06-14T07:21:03;99866.75;;;22.63;100.00
11672;BME280;5892;43.412;24.612;2023-06-14T07:23:30;99863.63;;;22.32;100.00
11672;BME280;5892;43.412;24.612;2023-06-14T07:25:57;99866.00;;;22.30;100.00
11672;BME280;5892;43.412;24.612;2023-06-14T07:28:24;99863.63;;;22.04;100.00
11672;BME280;5892;43.412;24.612;2023-06-14T07:30:53;99803.44;;;21.64;100.00
11672;BME280;5892;43.412;24.612;2023-06-14T07:33:20;99861.66;;;22.08;100.00
11672;BME280;5892;43.412;24.612;2023-06-14T07:35:48;99863.66;;;22.18;100.00
11672;BME280;5892;43.412;24.612;2023-06-14T07:38:16;99869.22;;;22.11;100.00
11672;BME280;5892;43.412;24.612;2023-06-14T07:40:43;99868.03;;;22.26;100.00
11672;BME280;5892;43.412;24.612;2023-06-14T07:43:09;99872.00;;;22.22;100.00
11672;BME280;5892;43.412;24.612;2023-06-14T07:45:37;99863.25;;;22.16;100.00
11672;BME280;5892;43.412;24.612;2023-06-14T07:48:05;99857.28;;;22.07;100.00
11672;BME280;5892;43.412;24.612;2023-06-14T07:50:32;99868.03;;;21.98;100.00
11672;BME280;5892;43.412;24.612;2023-06-14T07:53:01;99868.03;;;22.12;100.00
11672;BME280;5892;43.412;24.612;2023-06-14T07:55:27;99860.84;;;22.04;100.00
11672;BME280;5892;43.412;24.612;2023-06-14T07:57:54;99863.25;;;22.27;100.00
11672;BME280;5892;43.412;24.612;2023-06-14T08:00:21;99842.09;;;21.90;100.00
11672;BME280;5892;43.412;24.612;2023-06-14T08:02:48;99863.19;;;21.84;100.00
11672;BME280;5892;43.412;24.612;2023-06-14T08:05:16;99868.38;;;21.79;100.00
11672;BME280;5892;43.412;24.612;2023-06-14T08:07:43;99871.16;;;21.72;100.00
11672;BME280;5892;43.412;24.612;2023-06-14T08:10:11;99879.09;;;21.63;100.00
11672;BME280;5892;43.412;24.612;2023-06-14T08:12:38;99837.63;;;21.33;100.00
11672;BME280;5892;43.412;24.612;2023-06-14T08:15:06;99891.44;;;21.58;100.00
11672;BME280;5892;43.412;24.612;2023-06-14T08:17:33;99879.50;;;21.50;100.00
11672;BME280;5892;43.412;24.612;2023-06-14T08:20:00;99891.03;;;21.52;100.00
11672;BME280;5892;43.412;24.612;2023-06-14T08:22:27;99843.97;;;21.26;100.00
11672;BME280;5892;43.412;24.612;2023-06-14T08:24:57;99897.44;;;21.60;100.00
11672;BME280;5892;43.412;24.612;2023-06-14T08:27:25;99897.06;;;21.83;100.00
11672;BME280;5892;43.412;24.612;2023-06-14T08:29:52;99900.69;;;22.05;100.00
11672;BME280;5892;43.412;24.612;2023-06-14T08:32:19;99899.13;;;22.43;100.00
11672;BME280;5892;43.412;24.612;2023-06-14T08:34:47;99867.56;;;22.56;100.00
11672;BME280;5892;43.412;24.612;2023-06-14T08:37:14;99914.56;;;23.11;100.00
11672;BME280;5892;43.412;24.612;2023-06-14T08:39:52;99915.69;;;23.24;100.00
11672;BME280;5892;43.412;24.612;2023-06-14T08:42:21;99910.84;;;23.35;100.00
11672;BME280;5892;43.412;24.612;2023-06-14T08:44:52;99912.78;;;23.59;100.00
11672;BME280;5892;43.412;24.612;2023-06-14T08:47:19;99912.31;;;23.68;100.00
11672;BME280;5892;43.412;24.612;2023-06-14T08:49:48;99914.53;;;23.98;100.00
11672;BME280;5892;43.412;24.612;2023-06-14T08:52:18;99915.47;;;23.81;100.00
11672;BME280;5892;43.412;24.612;2023-06-14T08:54:46;99880.53;;;23.99;99.84
11672;BME280;5892;43.412;24.612;2023-06-14T08:57:14;99914.72;;;24.32;98.08
11672;BME280;5892;43.412;24.612;2023-06-14T08:59:47;99910.56;;;24.47;97.86
11672;BME280;5892;43.412;24.612;2023-06-14T09:02:19;99911.22;;;24.17;98.29
11672;BME280;5892;43.412;24.612;2023-06-14T09:04:47;99912.81;;;24.15;97.25
11672;BME280;5892;43.412;24.612;2023-06-14T09:07:15;99914.75;;;24.25;96.90
11672;BME280;5892;43.412;24.612;2023-06-14T09:09:42;99917.19;;;24.19;97.51
11672;BME280;5892;43.412;24.612;2023-06-14T09:12:10;99919.13;;;24.29;96.82
11672;BME280;5892;43.412;24.612;2023-06-14T09:14:38;99918.31;;;24.29;97.37
11672;BME280;5892;43.412;24.612;2023-06-14T09:17:07;99921.94;;;24.26;98.69
11672;BME280;5892;43.412;24.612;2023-06-14T09:19:35;99918.31;;;24.29;98.40
11672;BME280;5892;43.412;24.612;2023-06-14T09:22:03;99922.41;;;24.21;98.18
11672;BME280;5892;43.412;24.612;2023-06-14T09:24:37;99915.47;;;23.77;99.34
11672;BME280;5892;43.412;24.612;2023-06-14T09:27:04;99916.78;;;23.58;100.00
11672;BME280;5892;43.412;24.612;2023-06-14T09:29:32;99919.19;;;23.60;100.00
11672;BME280;5892;43.412;24.612;2023-06-14T09:31:59;99907.47;;;23.79;100.00
11672;BME280;5892;43.412;24.612;2023-06-14T09:34:26;99908.41;;;24.14;99.15
11672;BME280;5892;43.412;24.612;2023-06-14T09:36:54;99907.59;;;24.17;97.78
11672;BME280;5892;43.412;24.612;2023-06-14T09:39:21;99911.84;;;24.39;97.66
11672;BME280;5892;43.412;24.612;2023-06-14T09:41:48;99894.41;;;24.62;95.59
11672;BME280;5892;43.412;24.612;2023-06-14T09:44:14;99919.56;;;24.69;84.50
11672;BME280;5892;43.412;24.612;2023-06-14T09:46:43;99916.16;;;24.47;84.68
11672;BME280;5892;43.412;24.612;2023-06-14T09:49:10;99910.63;;;24.40;85.74
11672;BME280;5892;43.412;24.612;2023-06-14T09:51:43;99904.97;;;24.47;86.10
11672;BME280;5892;43.412;24.612;2023-06-14T09:54:15;99911.41;;;24.81;84.67
11672;BME280;5892;43.412;24.612;2023-06-14T09:56:45;99909.19;;;25.07;83.90
11672;BME280;5892;43.412;24.612;2023-06-14T09:59:13;99912.75;;;25.11;83.85
11672;BME280;5892;43.412;24.612;2023-06-14T10:01:43;99884.19;;;24.85;83.33
11672;BME280;5892;43.412;24.612;2023-06-14T10:04:13;99888.25;;;25.15;82.94
11672;BME280;5892;43.412;24.612;2023-06-14T10:06:45;99907.09;;;25.14;82.59
11672;BME280;5892;43.412;24.612;2023-06-14T10:09:15;99908.44;;;24.62;83.10
11672;BME280;5892;43.412;24.612;2023-06-14T10:11:43;99891.19;;;24.19;85.98
11672;BME280;5892;43.412;24.612;2023-06-14T10:14:11;99898.53;;;23.98;86.92
11672;BME280;5892;43.412;24.612;2023-06-14T10:16:46;99882.72;;;24.29;85.88
11672;BME280;5892;43.412;24.612;2023-06-14T10:19:19;99896.28;;;24.75;86.03
11672;BME280;5892;43.412;24.612;2023-06-14T10:21:55;99888.19;;;25.18;81.38
11672;BME280;5892;43.412;24.612;2023-06-14T10:24:29;99888.25;;;25.45;81.54
11672;BME280;5892;43.412;24.612;2023-06-14T10:26:58;99883.03;;;25.17;79.53
11672;BME280;5892;43.412;24.612;2023-06-14T10:29:26;99885.28;;;24.95;82.15
11672;BME280;5892;43.412;24.612;2023-06-14T10:31:59;99873.16;;;25.36;80.08
11672;BME280;5892;43.412;24.612;2023-06-14T10:34:38;99869.94;;;25.67;78.14
11672;BME280;5892;43.412;24.612;2023-06-14T10:37:10;99880.84;;;25.89;77.77
11672;BME280;5892;43.412;24.612;2023-06-14T10:39:40;99879.13;;;26.22;76.49
11672;BME280;5892;43.412;24.612;2023-06-14T10:42:08;99872.81;;;26.61;74.80
11672;BME280;5892;43.412;24.612;2023-06-14T10:44:54;99867.50;;;26.89;73.74
11672;BME280;5892;43.412;24.612;2023-06-14T10:47:23;99859.75;;;26.74;71.95
11672;BME280;5892;43.412;24.612;2023-06-14T10:49:52;99857.06;;;26.90;73.83
11672;BME280;5892;43.412;24.612;2023-06-14T10:52:25;99858.66;;;25.98;74.56
11672;BME280;5892;43.412;24.612;2023-06-14T10:55:03;99861.69;;;25.57;77.00
11672;BME280;5892;43.412;24.612;2023-06-14T10:57:32;99849.03;;;25.42;78.26
11672;BME280;5892;43.412;24.612;2023-06-14T10:59:59;99851.34;;;24.86;80.58
11672;BME280;5892;43.412;24.612;2023-06-14T11:02:48;99848.38;;;25.61;78.27
11672;BME280;5892;43.412;24.612;2023-06-14T11:05:24;99846.09;;;26.06;77.55
11672;BME280;5892;43.412;24.612;2023-06-14T11:08:13;99852.09;;;26.31;74.61
11672;BME280;5892;43.412;24.612;2023-06-14T11:10:46;99850.75;;;26.82;73.39
11672;BME280;5892;43.412;24.612;2023-06-14T11:13:16;99849.75;;;27.12;71.71
11672;BME280;5892;43.412;24.612;2023-06-14T11:15:44;99850.13;;;27.14;70.97
11672;BME280;5892;43.412;24.612;2023-06-14T11:18:13;99837.97;;;27.37;70.95
11672;BME280;5892;43.412;24.612;2023-06-14T11:20:46;99839.34;;;27.65;69.67
11672;BME280;5892;43.412;24.612;2023-06-14T11:23:13;99833.88;;;27.22;70.73
11672;BME280;5892;43.412;24.612;2023-06-14T11:25:40;99835.69;;;27.12;72.75
11672;BME280;5892;43.412;24.612;2023-06-14T11:28:08;99845.63;;;26.77;71.05
11672;BME280;5892;43.412;24.612;2023-06-14T11:30:35;99770.75;;;26.24;72.63
11672;BME280;5892;43.412;24.612;2023-06-14T11:33:02;99823.22;;;26.31;74.11
11672;BME280;5892;43.412;24.612;2023-06-14T11:35:29;99815.59;;;26.31;74.17
11672;BME280;5892;43.412;24.612;2023-06-14T11:37:56;99818.50;;;26.47;73.35
11672;BME280;5892;43.412;24.612;2023-06-14T11:40:24;99811.50;;;26.55;72.80
11672;BME280;5892;43.412;24.612;2023-06-14T11:42:58;99814.75;;;26.07;74.82
11672;BME280;5892;43.412;24.612;2023-06-14T11:45:28;99820.06;;;26.02;76.26
11672;BME280;5892;43.412;24.612;2023-06-14T11:47:56;99808.53;;;25.73;74.34
11672;BME280;5892;43.412;24.612;2023-06-14T11:50:24;99811.28;;;26.00;73.37
11672;BME280;5892;43.412;24.612;2023-06-14T11:52:54;99801.53;;;25.85;73.89
11672;BME280;5892;43.412;24.612;2023-06-14T11:55:21;99811.97;;;25.57;74.98
11672;BME280;5892;43.412;24.612;2023-06-14T11:57:49;99806.38;;;25.57;75.63
11672;BME280;5892;43.412;24.612;2023-06-14T12:00:16;99811.28;;;26.00;74.57
11672;BME280;5892;43.412;24.612;2023-06-14T12:02:52;99790.88;;;25.72;73.56
11672;BME280;5892;43.412;24.612;2023-06-14T12:05:21;99803.47;;;26.34;71.39
11672;BME280;5892;43.412;24.612;2023-06-14T12:07:48;99799.69;;;26.64;69.99
11672;BME280;5892;43.412;24.612;2023-06-14T12:10:16;99794.44;;;26.86;69.47
11672;BME280;5892;43.412;24.612;2023-06-14T12:12:43;99809.28;;;27.06;67.16
11672;BME280;5892;43.412;24.612;2023-06-14T12:15:10;99795.03;;;27.33;66.12
11672;BME280;5892;43.412;24.612;2023-06-14T12:17:38;99791.75;;;27.54;65.40
11672;BME280;5892;43.412;24.612;2023-06-14T12:20:10;99769.94;;;27.58;64.33
11672;BME280;5892;43.412;24.612;2023-06-14T12:22:40;99782.09;;;27.71;64.60
11672;BME280;5892;43.412;24.612;2023-06-14T12:25:23;99772.69;;;27.94;63.53
11672;BME280;5892;43.412;24.612;2023-06-14T12:27:52;99755.44;;;27.92;63.92
11672;BME280;5892;43.412;24.612;2023-06-14T12:30:19;99763.88;;;27.92;63.40
11672;BME280;5892;43.412;24.612;2023-06-14T12:32:47;99762.22;;;27.62;65.06
11672;BME280;5892;43.412;24.612;2023-06-14T12:35:18;99741.63;;;27.65;64.49
11672;BME280;5892;43.412;24.612;2023-06-14T12:37:45;99751.78;;;27.63;64.76
11672;BME280;5892;43.412;24.612;2023-06-14T12:40:13;99735.63;;;27.79;63.50
11672;BME280;5892;43.412;24.612;2023-06-14T12:42:40;99678.75;;;27.56;62.11
11672;BME280;5892;43.412;24.612;2023-06-14T12:45:10;99744.34;;;28.17;62.36
11672;BME280;5892;43.412;24.612;2023-06-14T12:47:37;99713.59;;;27.62;64.56
11672;BME280;5892;43.412;24.612;2023-06-14T12:50:05;99726.81;;;27.29;66.49
11672;BME280;5892;43.412;24.612;2023-06-14T12:52:34;99738.78;;;27.33;67.01
11672;BME280;5892;43.412;24.612;2023-06-14T12:55:04;99730.75;;;26.40;69.12
11672;BME280;5892;43.412;24.612;2023-06-14T12:57:35;99729.91;;;26.20;70.98
11672;BME280;5892;43.412;24.612;2023-06-14T13:00:04;99731.25;;;26.35;71.82